createdAt,value
2018-11-03T00:01:05.353Z,34.13
2018-11-03T00:03:34.267Z,31.37
2018-11-03T00:06:02.886Z,29.17
2018-11-03T00:08:32.286Z,26.03
2018-11-03T00:11:01.445Z,30.40
2018-11-03T00:13:30.072Z,29.30
2018-11-03T00:15:58.550Z,33.73
2018-11-03T00:18:27.097Z,26.93
2018-11-03T00:20:55.372Z,29.00
2018-11-03T00:23:23.632Z,30.70
2018-11-03T00:25:52.641Z,30.87
2018-11-03T00:28:20.826Z,31.47
2018-11-03T00:30:49.438Z,27.90
2018-11-03T00:33:17.565Z,27.13
2018-11-03T00:35:45.705Z,30.07
2018-11-03T00:38:14.449Z,23.27
2018-11-03T00:40:42.935Z,24.40
2018-11-03T00:43:11.220Z,27.43
2018-11-03T00:45:39.842Z,22.63
2018-11-03T00:48:08.011Z,27.17
2018-11-03T00:50:36.272Z,26.57
2018-11-03T00:53:05.231Z,29.50
2018-11-03T00:55:33.905Z,24.27
2018-11-03T00:58:02.671Z,22.13
2018-11-03T01:00:31.138Z,22.90
2018-11-03T01:02:59.603Z,23.80
2018-11-03T01:05:27.816Z,22.10
2018-11-03T01:07:56.220Z,19.70
2018-11-03T01:10:24.497Z,20.70
2018-11-03T01:12:53.056Z,23.30
2018-11-03T01:15:21.293Z,20.80
2018-11-03T01:17:49.474Z,27.93
2018-11-03T01:20:18.461Z,26.40
2018-11-03T01:22:46.818Z,24.40
2018-11-03T01:25:15.513Z,20.90
2018-11-03T01:27:43.836Z,25.63
2018-11-03T01:30:15.016Z,20.90
2018-11-03T01:32:43.516Z,25.47
2018-11-03T01:35:11.654Z,27.70
2018-11-03T01:37:40.645Z,21.67
2018-11-03T01:40:09.697Z,27.63
2018-11-03T01:42:38.199Z,30.07
2018-11-03T01:45:06.646Z,24.80
2018-11-03T01:47:35.627Z,21.37
2018-11-03T01:50:06.042Z,24.13
2018-11-03T01:52:34.457Z,22.47
2018-11-03T01:55:02.719Z,23.80
2018-11-03T01:57:31.043Z,22.07
2018-11-03T01:59:59.295Z,23.33
2018-11-03T02:02:27.806Z,29.93
2018-11-03T02:04:56.034Z,28.73
2018-11-03T02:07:24.155Z,30.73
2018-11-03T02:09:52.381Z,26.13
2018-11-03T02:12:20.609Z,27.90
2018-11-03T02:14:48.858Z,25.27
2018-11-03T02:17:17.113Z,21.87
2018-11-03T02:19:45.346Z,23.27
2018-11-03T02:22:13.436Z,23.00
2018-11-03T02:24:41.729Z,22.40
2018-11-03T02:27:10.921Z,23.50
2018-11-03T02:29:40.083Z,25.17
2018-11-03T02:32:08.317Z,23.70
2018-11-03T02:34:36.785Z,22.97
2018-11-03T02:37:05.093Z,20.50
2018-11-03T02:39:33.478Z,28.30
2018-11-03T02:42:01.878Z,22.03
2018-11-03T02:44:30.212Z,29.93
2018-11-03T02:46:58.779Z,21.77
2018-11-03T02:49:27.161Z,23.40
2018-11-03T02:51:55.511Z,25.43
2018-11-03T02:54:23.548Z,22.70
2018-11-03T02:56:51.787Z,24.10
2018-11-03T02:59:19.958Z,33.57
2018-11-03T03:01:48.215Z,27.83
2018-11-03T03:04:16.403Z,21.60
2018-11-03T03:06:44.577Z,29.60
2018-11-03T03:09:12.782Z,25.00
2018-11-03T03:11:40.848Z,23.27
2018-11-03T03:14:09.055Z,25.90
2018-11-03T03:16:37.237Z,23.23
2018-11-03T03:19:05.997Z,24.40
2018-11-03T03:21:34.365Z,21.47
2018-11-03T03:24:02.590Z,40.17
2018-11-03T03:26:30.785Z,22.67
2018-11-03T03:28:59.053Z,21.30
2018-11-03T03:31:27.242Z,23.17
2018-11-03T03:33:55.407Z,21.93
2018-11-03T03:36:23.456Z,22.27
2018-11-03T03:38:58.121Z,23.90
2018-11-03T03:41:26.353Z,22.53
2018-11-03T03:43:54.552Z,25.80
2018-11-03T03:46:22.645Z,26.50
2018-11-03T03:48:51.261Z,24.17
2018-11-03T03:51:19.399Z,24.30
2018-11-03T03:53:47.582Z,22.03
2018-11-03T03:56:15.753Z,19.83
2018-11-03T03:58:44.432Z,25.93
2018-11-03T04:01:12.525Z,25.90
2018-11-03T04:03:40.676Z,24.53
2018-11-03T04:06:08.931Z,23.70
2018-11-03T04:08:37.154Z,28.83
2018-11-03T04:11:05.452Z,28.93
2018-11-03T04:13:33.897Z,22.43
2018-11-03T04:16:02.415Z,25.47
2018-11-03T04:18:30.514Z,25.90
2018-11-03T04:20:58.753Z,21.60
2018-11-03T04:23:27.054Z,24.90
2018-11-03T04:25:55.201Z,23.67
2018-11-03T04:28:23.395Z,23.60
2018-11-03T04:30:51.560Z,23.67
2018-11-03T04:33:19.762Z,25.10
2018-11-03T04:35:47.927Z,28.20
2018-11-03T04:38:16.231Z,29.97
2018-11-03T04:40:44.336Z,27.83
2018-11-03T04:43:12.567Z,26.03
2018-11-03T04:45:41.300Z,26.60
2018-11-03T04:48:09.709Z,26.23
2018-11-03T04:50:37.961Z,24.10
2018-11-03T04:53:06.510Z,24.43
2018-11-03T04:55:34.540Z,27.10
2018-11-03T04:58:02.776Z,24.63
2018-11-03T05:00:31.022Z,26.20
2018-11-03T05:02:59.384Z,31.00
2018-11-03T05:05:27.818Z,30.20
2018-11-03T05:07:56.363Z,28.00
2018-11-03T05:12:59.161Z,27.57
2018-11-03T05:15:27.484Z,24.80
2018-11-03T05:17:55.577Z,31.27
2018-11-03T05:20:23.608Z,23.50
2018-11-03T05:22:51.853Z,28.13
2018-11-03T05:25:19.925Z,29.57
2018-11-03T05:27:48.078Z,26.30
2018-11-03T05:30:16.913Z,25.97
2018-11-03T05:32:45.749Z,25.07
2018-11-03T05:35:13.927Z,29.33
2018-11-03T05:37:42.127Z,24.03
2018-11-03T05:40:10.431Z,23.27
2018-11-03T05:42:38.766Z,22.90
2018-11-03T05:45:07.197Z,32.47
2018-11-03T05:47:35.635Z,23.27
2018-11-03T05:50:04.227Z,31.37
2018-11-03T05:52:32.556Z,28.43
2018-11-03T05:55:00.654Z,26.00
2018-11-03T05:57:28.760Z,22.70
2018-11-03T05:59:56.934Z,24.87
2018-11-03T06:02:25.113Z,27.93
2018-11-03T06:04:53.139Z,36.73
2018-11-03T06:07:21.389Z,24.77
2018-11-03T06:09:49.667Z,27.27
2018-11-03T06:12:17.788Z,26.80
2018-11-03T06:14:46.156Z,27.07
2018-11-03T06:17:14.264Z,26.17
2018-11-03T06:19:42.571Z,29.13
2018-11-03T06:22:11.034Z,31.23
2018-11-03T06:24:39.391Z,27.30
2018-11-03T06:27:07.602Z,29.10
2018-11-03T06:29:35.967Z,27.03
2018-11-03T06:32:04.449Z,32.30
2018-11-03T06:34:32.609Z,24.47
2018-11-03T06:37:00.720Z,30.53
2018-11-03T06:39:28.937Z,23.40
2018-11-03T06:41:57.063Z,28.13
2018-11-03T06:44:25.478Z,23.73
2018-11-03T06:46:53.581Z,21.40
2018-11-03T06:49:23.152Z,23.00
2018-11-03T06:51:52.104Z,28.07
2018-11-03T06:54:20.394Z,20.83
2018-11-03T06:56:48.903Z,21.50
2018-11-03T06:59:18.548Z,23.30
2018-11-03T07:01:46.741Z,26.10
2018-11-03T07:04:16.843Z,27.07
2018-11-03T07:06:45.052Z,24.70
2018-11-03T07:09:13.666Z,19.43
2018-11-03T07:11:42.299Z,24.37
2018-11-03T07:14:10.986Z,23.33
2018-11-03T07:16:40.088Z,22.57
2018-11-03T07:19:08.301Z,30.77
2018-11-03T07:21:36.962Z,20.67
2018-11-03T07:24:05.474Z,23.37
2018-11-03T07:26:35.748Z,25.40
2018-11-03T07:29:04.790Z,24.87
2018-11-03T07:31:33.665Z,24.23
2018-11-03T07:34:03.314Z,23.13
2018-11-03T07:36:34.368Z,27.87
2018-11-03T07:39:06.464Z,21.87
2018-11-03T07:41:35.709Z,29.50
2018-11-03T07:44:04.640Z,27.93
2018-11-03T07:46:32.968Z,25.23
2018-11-03T07:49:01.484Z,29.80
2018-11-03T07:51:29.980Z,34.13
2018-11-03T08:04:15.495Z,23.30
2018-11-03T08:06:44.050Z,26.73
2018-11-03T08:09:12.828Z,21.03
2018-11-03T08:11:41.510Z,20.80
2018-11-03T08:14:10.201Z,26.13
2018-11-03T08:16:38.706Z,21.30
2018-11-03T08:19:07.310Z,31.73
2018-11-03T08:21:36.030Z,20.80
2018-11-03T08:24:04.954Z,27.40
2018-11-03T08:26:42.508Z,20.83
2018-11-03T08:29:12.819Z,27.13
2018-11-03T08:31:41.137Z,20.20
2018-11-03T08:34:09.578Z,27.80
2018-11-03T08:36:38.052Z,21.60
2018-11-03T08:39:07.773Z,21.87
2018-11-03T08:41:36.946Z,26.23
2018-11-03T08:44:05.761Z,27.03
2018-11-03T08:46:34.179Z,23.00
2018-11-03T08:49:03.512Z,22.63
2018-11-03T08:51:32.668Z,25.50
2018-11-03T08:54:01.798Z,23.30
2018-11-03T08:56:30.265Z,21.10
2018-11-03T08:58:58.679Z,30.50
2018-11-03T09:04:02.709Z,26.17
2018-11-03T09:06:31.151Z,21.93
2018-11-03T09:08:59.521Z,32.40
2018-11-03T09:11:29.279Z,21.23
2018-11-03T09:13:57.989Z,25.13
2018-11-03T09:16:26.768Z,22.63
2018-11-03T09:18:58.381Z,22.63
2018-11-03T09:21:26.493Z,24.03
2018-11-03T09:23:57.357Z,23.17
2018-11-03T09:26:26.203Z,23.63
2018-11-03T09:31:32.960Z,24.13
2018-11-03T09:34:12.393Z,23.33
2018-11-03T09:36:41.270Z,26.27
2018-11-03T09:39:10.519Z,30.80
2018-11-03T09:41:41.319Z,33.23
2018-11-03T09:46:53.266Z,26.90
2018-11-03T09:49:21.932Z,25.17
2018-11-03T09:51:51.484Z,30.00
2018-11-03T09:54:20.806Z,24.60
2018-11-03T09:56:58.392Z,26.60
2018-11-03T10:02:01.628Z,23.83
2018-11-03T10:04:30.730Z,21.23
2018-11-03T10:09:36.533Z,22.40
2018-11-03T10:14:46.547Z,26.00
2018-11-03T10:17:16.120Z,28.20
2018-11-03T10:19:46.071Z,27.80
2018-11-03T10:27:55.522Z,32.37
2018-11-03T10:30:35.471Z,25.23
2018-11-03T10:33:06.161Z,28.60
2018-11-03T10:38:16.692Z,33.10
2018-11-03T10:40:50.036Z,27.87
2018-11-03T10:43:18.659Z,33.70
2018-11-03T10:48:26.019Z,28.63
2018-11-03T10:51:00.053Z,26.13
2018-11-03T10:56:10.913Z,33.13
2018-11-03T10:58:42.192Z,33.03
2018-11-03T11:01:16.261Z,30.57
2018-11-03T11:09:12.867Z,35.87
2018-11-03T11:11:52.889Z,32.83
2018-11-03T11:14:26.163Z,35.70
2018-11-03T11:19:36.069Z,30.47
2018-11-03T11:22:09.336Z,36.10
2018-11-03T11:27:32.669Z,36.20
2018-11-03T11:30:01.888Z,33.97
2018-11-03T11:32:32.919Z,35.60
2018-11-03T11:35:03.322Z,31.50
2018-11-03T11:48:22.905Z,46.97
2018-11-03T11:50:55.699Z,34.70
2018-11-03T11:53:29.018Z,38.60
2018-11-03T11:56:03.130Z,39.60
2018-11-03T11:58:33.832Z,39.10
2018-11-03T12:01:02.742Z,41.17
2018-11-03T12:06:47.659Z,45.60
2018-11-03T12:09:18.973Z,43.27
2018-11-03T12:17:15.686Z,42.17
2018-11-03T12:22:26.368Z,37.30
2018-11-03T12:25:01.078Z,41.43
2018-11-03T12:27:34.810Z,40.10
2018-11-03T12:30:04.225Z,35.10
2018-11-03T12:35:15.665Z,38.03
2018-11-03T12:37:52.500Z,42.13
2018-11-03T12:40:30.694Z,41.97
2018-11-03T12:43:06.181Z,36.83
2018-11-03T12:45:44.791Z,36.90
2018-11-03T12:48:15.198Z,35.13
2018-11-03T12:58:52.500Z,41.37
2018-11-03T13:03:58.631Z,41.83
2018-11-03T13:06:27.242Z,42.17
2018-11-03T13:08:56.207Z,36.37
2018-11-03T13:11:24.622Z,39.47
2018-11-03T13:13:53.690Z,38.53
2018-11-03T13:16:22.718Z,45.60
2018-11-03T13:18:52.894Z,47.47
2018-11-03T13:23:57.157Z,46.73
2018-11-03T13:26:25.855Z,53.87
2018-11-03T13:28:54.228Z,48.50
2018-11-03T13:33:59.952Z,44.17
2018-11-03T13:36:39.645Z,50.97
2018-11-03T13:39:11.737Z,54.83
2018-11-03T13:44:22.656Z,45.10
2018-11-03T13:46:54.361Z,47.60
2018-11-03T13:54:37.019Z,47.93
2018-11-03T13:57:05.855Z,45.77
2018-11-03T13:59:39.872Z,40.73
2018-11-03T14:02:12.689Z,44.20
2018-11-03T14:04:41.120Z,43.80
2018-11-03T14:07:10.388Z,42.77
2018-11-03T14:12:14.380Z,48.57
2018-11-03T14:14:42.745Z,45.50
2018-11-03T14:19:49.015Z,49.07
2018-11-03T14:22:20.132Z,43.87
2018-11-03T14:24:58.090Z,41.00
2018-11-03T14:27:27.028Z,49.40
2018-11-03T14:29:55.297Z,45.17
2018-11-03T14:32:26.476Z,40.17
2018-11-03T14:34:57.399Z,39.97
2018-11-03T14:37:26.157Z,43.43
2018-11-03T14:39:55.282Z,40.53
2018-11-03T14:42:23.789Z,44.83
2018-11-03T14:44:54.137Z,36.03
2018-11-03T14:47:22.963Z,43.30
2018-11-03T14:49:53.542Z,44.03
2018-11-03T14:52:22.255Z,39.50
2018-11-03T14:57:37.974Z,48.53
2018-11-03T15:00:15.565Z,40.73
2018-11-03T15:02:47.964Z,44.90
2018-11-03T15:05:21.367Z,41.40
2018-11-03T15:10:28.642Z,38.13
2018-11-03T15:12:57.696Z,33.57
2018-11-03T15:15:36.821Z,36.40
2018-11-03T15:18:06.169Z,35.53
2018-11-03T15:20:35.590Z,30.60
2018-11-03T15:23:20.732Z,48.43
2018-11-03T15:25:51.704Z,37.40
2018-11-03T15:31:09.353Z,40.13
2018-11-03T15:34:01.125Z,37.50
2018-11-03T15:36:31.516Z,37.83
2018-11-03T15:42:05.989Z,41.27
2018-11-03T15:44:36.326Z,45.83
2018-11-03T15:47:11.704Z,40.47
2018-11-03T15:52:23.080Z,44.80
2018-11-03T15:54:56.150Z,44.37
2018-11-03T15:57:29.238Z,50.80
2018-11-03T16:00:06.483Z,51.93
2018-11-03T16:02:35.421Z,51.40
2018-11-03T16:05:04.994Z,57.43
2018-11-03T16:07:41.461Z,53.30
2018-11-03T16:10:14.711Z,51.80
2018-11-03T16:15:36.453Z,53.90
2018-11-03T16:18:05.682Z,56.90
2018-11-03T16:23:25.082Z,61.83
2018-11-03T16:28:47.469Z,61.60
2018-11-03T16:36:48.196Z,63.43
2018-11-03T16:44:48.462Z,70.40
2018-11-03T16:47:32.821Z,67.03
2018-11-03T19:12:29.319Z,55.30
2018-11-03T19:14:58.087Z,69.93
2018-11-03T19:23:02.338Z,68.77
2018-11-03T19:31:10.342Z,55.57
2018-11-03T19:36:25.147Z,53.27
2018-11-03T19:38:54.821Z,66.47
2018-11-03T19:41:25.638Z,61.60
2018-11-03T19:46:56.741Z,59.40
2018-11-03T19:49:34.584Z,64.33
2018-11-03T19:52:03.344Z,58.77
2018-11-03T19:54:33.326Z,61.10
2018-11-03T19:57:05.649Z,60.77
2018-11-03T20:05:03.774Z,52.40
2018-11-03T20:07:43.072Z,62.70
2018-11-03T20:13:21.579Z,52.53
2018-11-03T20:15:51.844Z,60.23
2018-11-03T20:23:56.629Z,57.53
2018-11-03T20:29:19.466Z,54.70
2018-11-03T20:34:31.955Z,60.23
2018-11-03T20:37:08.710Z,57.40
2018-11-03T20:39:41.138Z,47.87
2018-11-03T20:42:09.414Z,50.53
2018-11-03T20:44:42.647Z,56.03
2018-11-03T20:47:13.139Z,53.37
2018-11-03T20:49:41.525Z,38.90
2018-11-03T20:52:09.972Z,45.43
2018-11-03T20:54:38.890Z,50.50
2018-11-03T20:57:11.472Z,46.53
2018-11-03T21:02:14.839Z,41.80
2018-11-03T21:07:17.261Z,43.50
2018-11-03T21:09:45.507Z,50.60
2018-11-03T21:12:19.379Z,49.47
2018-11-03T21:14:55.159Z,57.33
2018-11-03T21:17:24.502Z,51.40
2018-11-03T21:19:56.240Z,51.70
2018-11-03T21:22:34.074Z,46.50
2018-11-03T21:30:18.061Z,47.97
2018-11-03T21:32:51.800Z,45.87
2018-11-03T21:38:03.146Z,49.00
2018-11-03T21:40:36.223Z,43.73
2018-11-03T21:43:06.829Z,44.57
2018-11-03T21:48:20.052Z,55.43
2018-11-03T21:50:49.671Z,54.30
2018-11-03T22:01:09.208Z,56.20
2018-11-03T22:03:40.408Z,53.40
2018-11-03T22:06:19.488Z,62.10
2018-11-03T22:08:48.166Z,61.77
2018-11-03T22:11:16.539Z,55.00
2018-11-03T22:13:44.954Z,66.07
2018-11-03T22:16:14.615Z,63.33
2018-11-03T22:18:45.178Z,69.47
2018-11-03T22:21:13.958Z,66.17
2018-11-03T22:23:42.424Z,70.27
2018-11-03T22:31:28.636Z,61.27
2018-11-03T22:33:57.344Z,57.97
2018-11-03T22:36:26.425Z,54.67
2018-11-03T22:39:00.509Z,56.60
2018-11-03T22:41:34.262Z,52.63
2018-11-03T22:44:03.726Z,59.70
2018-11-03T22:46:32.362Z,58.77
2018-11-03T22:49:01.050Z,68.10
2018-11-03T22:54:04.857Z,49.63
2018-11-03T22:56:34.067Z,60.37
2018-11-03T22:59:02.401Z,57.00
2018-11-03T23:01:30.729Z,59.33
2018-11-03T23:03:59.333Z,59.50
2018-11-03T23:06:27.639Z,44.17
2018-11-03T23:08:56.065Z,46.77
2018-11-03T23:11:24.966Z,51.47
2018-11-03T23:13:53.334Z,52.63
2018-11-03T23:16:28.970Z,55.53
2018-11-03T23:18:57.303Z,51.57
2018-11-03T23:21:25.753Z,45.97
2018-11-03T23:23:54.802Z,50.87
2018-11-03T23:26:23.903Z,54.40
2018-11-03T23:28:55.748Z,48.47
2018-11-03T23:31:24.616Z,49.70
2018-11-03T23:33:53.380Z,47.60
2018-11-03T23:36:21.506Z,54.97
2018-11-03T23:38:49.835Z,52.50
2018-11-03T23:41:18.530Z,54.70
2018-11-03T23:43:46.854Z,44.97
2018-11-03T23:46:15.518Z,50.53
2018-11-03T23:48:43.946Z,41.27
2018-11-03T23:53:45.188Z,51.23
2018-11-03T23:56:17.604Z,55.33
2018-11-03T23:58:45.873Z,54.13
